Time;durP1;ratioP1;P1;durP2;ratioP2;P2;SDS_P1;SDS_P2;PMS_P1;PMS_P2;Temp;Humidity;BMP_temperature;BMP_pressure;BME280_temperature;BME280_humidity;BME280_pressure;Samples;Min_cycle;Max_cycle;Signal;HPM_P1;HPM_P2
2021/01/11 00:00:11;;;;;;;14.83;11.37;;;3.90;99.90;;;;;;5023327;28;20195;-54
2021/01/11 00:02:37;;;;;;;18.17;11.90;;;3.90;99.90;;;;;;5014870;28;20231;-50
2021/01/11 00:05:04;;;;;;;18.20;12.43;;;3.90;99.90;;;;;;5006415;28;20212;-50
2021/01/11 00:07:29;;;;;;;15.30;11.30;;;3.90;99.90;;;;;;5003606;28;20845;-53
2021/01/11 00:09:55;;;;;;;19.83;12.67;;;3.90;99.90;;;;;;5013820;28;20184;-53
2021/01/11 00:12:20;;;;;;;17.33;11.47;;;3.90;99.90;;;;;;5009876;28;20211;-48
2021/01/11 00:14:46;;;;;;;17.83;12.50;;;3.90;99.90;;;;;;5007026;28;20215;-51
2021/01/11 00:17:11;;;;;;;16.90;11.57;;;3.90;99.90;;;;;;5003275;28;20564;-51
2021/01/11 00:19:36;;;;;;;17.13;12.27;;;3.90;99.90;;;;;;5001028;28;20238;-54
2021/01/11 00:22:02;;;;;;;18.17;12.50;;;3.90;99.90;;;;;;4998384;28;20235;-53
2021/01/11 00:24:27;;;;;;;18.87;13.00;;;3.90;99.90;;;;;;5018967;28;20900;-48
2021/01/11 00:26:56;;;;;;;18.60;13.00;;;3.90;99.90;;;;;;5023552;28;20532;-51
2021/01/11 00:29:22;;;;;;;21.40;12.90;;;3.90;99.90;;;;;;5015013;28;20192;-47
2021/01/11 00:31:47;;;;;;;20.97;13.17;;;3.90;99.90;;;;;;5021985;28;20477;-48
2021/01/11 00:34:13;;;;;;;19.67;13.40;;;3.90;99.90;;;;;;5006241;28;20192;-49
2021/01/11 00:36:38;;;;;;;24.93;15.17;;;3.90;99.90;;;;;;5000297;28;20196;-53
2021/01/11 00:39:04;;;;;;;24.20;14.43;;;3.90;99.90;;;;;;5001554;28;20188;-53
2021/01/11 00:41:29;;;;;;;22.20;14.70;;;3.90;99.90;;;;;;5007238;28;20822;-51
2021/01/11 00:43:55;;;;;;;27.80;16.67;;;3.90;99.90;;;;;;5010053;28;20192;-54
2021/01/11 00:46:22;;;;;;;27.00;16.27;;;3.90;99.90;;;;;;5004512;28;20243;-48
2021/01/11 00:48:47;;;;;;;23.30;15.10;;;3.90;99.90;;;;;;5004753;28;20203;-53
2021/01/11 00:51:12;;;;;;;26.43;17.03;;;3.90;99.90;;;;;;5017600;28;20180;-48
2021/01/11 00:53:38;;;;;;;27.47;17.03;;;3.90;99.90;;;;;;5010894;28;20224;-49
2021/01/11 00:56:04;;;;;;;27.87;16.13;;;3.90;99.90;;;;;;5009338;28;20283;-52
2021/01/11 00:58:29;;;;;;;29.80;16.80;;;3.90;99.90;;;;;;4999273;28;20773;-50
2021/01/11 01:00:55;;;;;;;27.00;16.90;;;3.90;99.90;;;;;;5026314;28;20645;-49
2021/01/11 01:03:20;;;;;;;27.33;17.90;;;3.90;99.90;;;;;;5019489;28;20271;-51
2021/01/11 01:05:45;;;;;;;29.00;17.33;;;3.90;99.90;;;;;;5006571;28;20235;-49
2021/01/11 01:08:11;;;;;;;25.70;16.23;;;3.90;99.90;;;;;;5006292;28;20284;-51
2021/01/11 01:10:36;;;;;;;28.00;17.40;;;3.90;99.90;;;;;;4996839;28;20177;-48
2021/01/11 01:13:02;;;;;;;25.20;15.63;;;3.90;99.90;;;;;;5006088;28;20209;-51
2021/01/11 01:15:27;;;;;;;28.63;15.70;;;3.90;99.90;;;;;;5015707;28;20187;-48
2021/01/11 01:17:53;;;;;;;26.67;15.90;;;3.90;99.90;;;;;;5026172;28;20313;-51
2021/01/11 01:20:18;;;;;;;30.17;16.33;;;3.90;99.90;;;;;;5015336;28;20234;-48
2021/01/11 01:22:47;;;;;;;30.77;17.10;;;3.80;99.90;;;;;;5004495;28;20978;-51
2021/01/11 01:25:14;;;;;;;29.27;17.40;;;3.80;99.90;;;;;;5001284;28;20205;-50
2021/01/11 01:27:40;;;;;;;29.00;17.30;;;3.80;99.90;;;;;;5023021;28;20202;-50
2021/01/11 01:30:09;;;;;;;27.53;16.77;;;3.90;99.90;;;;;;5020820;28;20697;-51
2021/01/11 01:32:34;;;;;;;29.23;17.23;;;3.80;99.90;;;;;;5022070;28;20365;-49
2021/01/11 01:35:00;;;;;;;30.17;15.83;;;3.90;99.90;;;;;;5020186;28;20626;-50
2021/01/11 01:37:25;;;;;;;24.87;15.17;;;3.90;99.90;;;;;;5002691;28;20257;-49
2021/01/11 01:39:51;;;;;;;26.23;15.93;;;3.90;99.90;;;;;;5013276;28;20176;-51
2021/01/11 01:42:16;;;;;;;27.63;14.43;;;3.90;99.90;;;;;;5009241;28;20208;-51
2021/01/11 01:44:41;;;;;;;26.27;16.10;;;3.90;99.90;;;;;;5023161;28;20179;-50
2021/01/11 01:47:07;;;;;;;23.63;15.17;;;3.80;99.90;;;;;;5025525;28;20204;-51
2021/01/11 01:49:32;;;;;;;24.03;14.50;;;3.90;99.90;;;;;;5020312;28;20180;-50
2021/01/11 01:51:59;;;;;;;25.13;15.03;;;3.90;99.90;;;;;;5007565;28;20259;-50
2021/01/11 01:54:24;;;;;;;23.40;14.53;;;3.90;99.90;;;;;;5002004;28;20173;-48
2021/01/11 01:56:50;;;;;;;22.63;15.77;;;3.90;99.90;;;;;;4998032;28;20203;-47
2021/01/11 01:59:16;;;;;;;23.87;13.97;;;3.90;99.90;;;;;;5023550;28;20630;-52
2021/01/11 02:01:43;;;;;;;26.07;15.63;;;3.80;99.90;;;;;;5023179;28;20949;-50
2021/01/11 02:04:09;;;;;;;30.57;16.20;;;3.90;99.90;;;;;;5025054;28;20255;-50
2021/01/11 02:06:37;;;;;;;26.43;16.37;;;3.90;99.90;;;;;;5007386;28;20268;-51
2021/01/11 02:09:10;;;;;;;26.93;16.50;;;3.90;99.90;;;;;;5006194;28;20344;-50
2021/01/11 02:11:47;;;;;;;22.60;15.03;;;3.90;99.90;;;;;;5008276;28;20905;-53
2021/01/11 02:14:31;;;;;;;25.47;15.53;;;3.90;99.90;;;;;;5023900;28;20198;-47
2021/01/11 02:17:16;;;;;;;24.27;15.00;;;3.90;99.90;;;;;;5025188;28;20283;-51
2021/01/11 02:20:23;;;;;;;23.00;13.87;;;3.90;99.90;;;;;;5022446;28;20226;-51
2021/01/11 02:23:13;;;;;;;25.43;14.70;;;3.90;99.90;;;;;;4993048;28;20217;-50
2021/01/11 02:25:48;;;;;;;25.47;14.47;;;3.90;99.90;;;;;;5015675;28;20183;-50
2021/01/11 02:28:48;;;;;;;24.23;14.03;;;3.90;99.90;;;;;;5010365;28;20223;-47
2021/01/11 02:31:15;;;;;;;22.00;12.80;;;4.00;99.90;;;;;;5001699;28;20200;-47
2021/01/11 02:33:42;;;;;;;23.20;14.13;;;3.90;99.90;;;;;;5007939;28;20173;-49
2021/01/11 02:36:09;;;;;;;23.17;14.93;;;4.00;99.90;;;;;;5022509;28;20203;-53
2021/01/11 02:38:37;;;;;;;28.00;14.43;;;3.90;99.90;;;;;;5005054;28;20921;-53
2021/01/11 02:41:03;;;;;;;25.77;15.10;;;4.00;99.90;;;;;;5011538;28;20326;-53
2021/01/11 02:43:28;;;;;;;21.73;14.40;;;4.00;99.90;;;;;;4996570;28;20945;-51
2021/01/11 02:45:54;;;;;;;24.23;13.20;;;4.00;99.90;;;;;;5004847;28;20181;-53
2021/01/11 02:48:26;;;;;;;28.07;15.10;;;4.00;99.90;;;;;;5001934;28;20180;-47
2021/01/11 02:51:04;;;;;;;25.93;14.67;;;4.00;99.90;;;;;;5007985;28;20172;-51
2021/01/11 02:53:32;;;;;;;25.80;14.87;;;4.00;99.90;;;;;;5004346;28;20204;-52
2021/01/11 02:56:07;;;;;;;26.77;15.73;;;4.00;99.90;;;;;;5013159;28;20191;-52
2021/01/11 02:58:51;;;;;;;27.13;15.60;;;4.00;99.90;;;;;;5002693;28;20275;-50
2021/01/11 03:01:17;;;;;;;25.27;13.97;;;4.00;99.90;;;;;;5002316;28;20175;-48
2021/01/11 03:03:52;;;;;;;29.27;15.93;;;4.00;99.90;;;;;;5002008;28;20468;-51
2021/01/11 03:06:17;;;;;;;30.80;15.87;;;4.00;99.90;;;;;;5002862;28;20177;-49
2021/01/11 03:08:43;;;;;;;27.90;15.10;;;4.00;99.90;;;;;;5000556;28;20280;-49
2021/01/11 03:11:08;;;;;;;31.17;16.60;;;4.00;99.90;;;;;;5010248;28;20578;-46
2021/01/11 03:13:34;;;;;;;29.27;14.50;;;4.00;99.90;;;;;;4999381;28;20222;-50
2021/01/11 03:15:59;;;;;;;28.23;14.80;;;4.00;99.90;;;;;;5023742;28;20287;-51
2021/01/11 03:18:25;;;;;;;31.37;16.87;;;4.00;99.90;;;;;;5020189;28;20204;-49
2021/01/11 03:20:51;;;;;;;27.70;16.43;;;4.00;99.90;;;;;;5022902;28;20180;-50
2021/01/11 03:23:16;;;;;;;32.40;16.27;;;4.00;99.90;;;;;;5012483;28;20193;-51
2021/01/11 03:25:42;;;;;;;34.03;17.50;;;4.00;99.90;;;;;;4999166;28;20870;-52
2021/01/11 03:28:08;;;;;;;38.00;19.43;;;4.10;99.90;;;;;;5004222;28;20674;-50
2021/01/11 03:30:34;;;;;;;46.87;22.23;;;4.00;99.90;;;;;;4995050;28;20187;-51
2021/01/11 03:32:59;;;;;;;42.00;20.40;;;4.00;99.90;;;;;;5006854;28;20245;-52
2021/01/11 03:35:25;;;;;;;47.30;21.33;;;4.10;99.90;;;;;;5000516;28;20173;-49
2021/01/11 03:37:50;;;;;;;48.40;21.13;;;4.00;99.90;;;;;;5003479;28;20231;-51
2021/01/11 03:40:16;;;;;;;46.33;22.87;;;4.00;99.90;;;;;;5001077;28;20184;-49
2021/01/11 03:42:41;;;;;;;51.67;23.67;;;4.00;99.90;;;;;;5001650;28;20207;-50
2021/01/11 03:45:09;;;;;;;57.87;26.03;;;4.00;99.90;;;;;;4999127;28;20248;-50
2021/01/11 03:47:35;;;;;;;55.33;25.50;;;4.00;99.90;;;;;;5019522;28;20179;-48
2021/01/11 03:50:02;;;;;;;47.07;22.03;;;4.00;99.90;;;;;;5023402;28;20184;-50
2021/01/11 03:52:29;;;;;;;48.33;23.60;;;4.00;99.90;;;;;;5019139;28;20192;-50
2021/01/11 03:54:54;;;;;;;43.50;22.50;;;4.00;99.90;;;;;;5023189;28;20164;-55
2021/01/11 03:57:19;;;;;;;45.07;20.90;;;4.00;99.90;;;;;;4999653;28;20205;-49
2021/01/11 03:59:45;;;;;;;50.20;23.90;;;3.90;99.90;;;;;;5001956;28;20252;-49
2021/01/11 04:02:11;;;;;;;45.00;22.77;;;3.90;99.90;;;;;;5006818;28;20263;-49
2021/01/11 04:04:36;;;;;;;53.23;25.57;;;3.90;99.90;;;;;;5020095;28;20164;-51
2021/01/11 04:07:02;;;;;;;48.53;22.53;;;3.90;99.90;;;;;;5023172;28;20191;-51
2021/01/11 04:09:27;;;;;;;45.40;22.60;;;3.90;99.90;;;;;;5019220;28;20755;-48
2021/01/11 04:11:53;;;;;;;50.70;24.00;;;3.90;99.90;;;;;;5016927;28;20220;-51
2021/01/11 04:14:20;;;;;;;46.13;22.33;;;3.90;99.90;;;;;;5005720;28;20279;-51
2021/01/11 04:16:45;;;;;;;36.23;20.87;;;3.90;99.90;;;;;;4997458;28;20216;-49
2021/01/11 04:19:11;;;;;;;54.17;24.87;;;3.90;99.90;;;;;;5026377;28;20175;-45
2021/01/11 04:21:40;;;;;;;48.57;23.53;;;3.90;99.90;;;;;;5023683;28;20953;-52
2021/01/11 04:24:06;;;;;;;50.93;24.13;;;3.90;99.90;;;;;;5026922;28;20177;-49
2021/01/11 04:26:31;;;;;;;42.73;21.47;;;3.90;99.90;;;;;;5017705;28;20199;-53
2021/01/11 04:28:57;;;;;;;49.57;21.57;;;3.90;99.90;;;;;;5010352;28;20209;-49
2021/01/11 04:31:22;;;;;;;38.70;21.93;;;3.90;99.90;;;;;;5004243;28;20238;-48
2021/01/11 04:33:47;;;;;;;45.87;22.90;;;3.90;99.90;;;;;;5006019;28;20192;-50
2021/01/11 04:36:13;;;;;;;40.43;20.57;;;4.00;99.90;;;;;;5025944;28;20203;-47
2021/01/11 04:38:39;;;;;;;37.20;19.93;;;3.90;99.90;;;;;;5022551;28;20183;-50
2021/01/11 04:41:05;;;;;;;55.87;23.70;;;3.90;99.90;;;;;;5013693;28;20172;-50
2021/01/11 04:43:42;;;;;;;50.27;23.30;;;3.90;99.90;;;;;;5000996;28;20215;-49
2021/01/11 04:46:07;;;;;;;36.57;18.90;;;3.90;99.90;;;;;;5007039;28;20183;-53
2021/01/11 04:48:33;;;;;;;42.67;19.70;;;3.90;99.90;;;;;;4993013;28;20195;-52
2021/01/11 04:50:58;;;;;;;49.43;23.77;;;3.90;99.90;;;;;;5026511;28;20168;-50
2021/01/11 04:53:26;;;;;;;65.30;24.77;;;3.90;99.90;;;;;;5023017;28;20223;-48
2021/01/11 04:55:53;;;;;;;57.60;22.67;;;3.90;99.90;;;;;;5026220;28;20183;-54
2021/01/11 04:58:21;;;;;;;49.97;23.37;;;3.90;99.90;;;;;;5015752;28;20641;-49
2021/01/11 05:00:48;;;;;;;51.53;22.33;;;3.90;99.90;;;;;;5005319;28;20219;-47
2021/01/11 05:03:14;;;;;;;44.67;22.67;;;3.90;99.90;;;;;;5005200;28;20219;-46
2021/01/11 05:05:44;;;;;;;46.83;23.73;;;3.90;99.90;;;;;;5003621;28;20176;-50
2021/01/11 05:08:09;;;;;;;46.37;22.63;;;3.90;99.90;;;;;;5025721;28;20641;-47
2021/01/11 05:10:37;;;;;;;60.47;24.80;;;3.90;99.90;;;;;;5017977;28;20175;-50
2021/01/11 05:13:07;;;;;;;57.60;23.10;;;3.90;99.90;;;;;;5017539;28;20541;-53
2021/01/11 05:15:38;;;;;;;42.53;20.03;;;3.90;99.90;;;;;;4998821;28;20185;-54
2021/01/11 05:18:15;;;;;;;41.70;18.97;;;3.90;99.90;;;;;;5005936;28;20258;-52
2021/01/11 05:20:40;;;;;;;47.37;22.30;;;3.90;99.90;;;;;;4995687;28;20187;-50
2021/01/11 05:23:12;;;;;;;86.60;27.70;;;3.90;99.90;;;;;;5025267;28;20188;-50
2021/01/11 05:25:39;;;;;;;67.03;24.57;;;3.90;99.90;;;;;;5021911;28;20251;-50
2021/01/11 05:28:16;;;;;;;50.10;23.07;;;3.90;99.90;;;;;;5025910;28;20176;-52
2021/01/11 05:30:46;;;;;;;61.50;26.90;;;3.90;99.90;;;;;;5007362;28;20889;-48
2021/01/11 05:33:25;;;;;;;59.40;24.97;;;3.90;99.90;;;;;;5004818;28;20706;-48
2021/01/11 05:36:12;;;;;;;64.90;26.53;;;3.90;99.90;;;;;;5006003;28;20645;-50
2021/01/11 05:38:45;;;;;;;49.07;23.43;;;3.90;99.90;;;;;;4998559;28;20838;-52
2021/01/11 05:41:24;;;;;;;71.40;27.43;;;3.90;99.90;;;;;;5014979;28;20582;-51
2021/01/11 05:44:09;;;;;;;52.60;23.37;;;3.90;99.90;;;;;;5013659;28;20272;-49
2021/01/11 05:46:35;;;;;;;65.03;25.50;;;3.90;99.90;;;;;;5002535;28;20226;-48
2021/01/11 05:49:03;;;;;;;51.77;22.87;;;3.90;99.90;;;;;;5005346;28;20200;-50
2021/01/11 05:51:30;;;;;;;48.20;22.67;;;3.90;99.90;;;;;;5001915;28;20226;-47
2021/01/11 05:53:56;;;;;;;61.73;25.17;;;3.90;99.90;;;;;;4999957;28;20192;-50
2021/01/11 05:56:23;;;;;;;57.33;25.97;;;3.90;99.90;;;;;;5002581;28;20203;-47
2021/01/11 05:59:08;;;;;;;65.40;26.00;;;3.90;99.90;;;;;;5004605;28;20169;-51
2021/01/11 06:01:36;;;;;;;86.43;30.20;;;3.90;99.90;;;;;;4997673;28;20759;-49
2021/01/11 06:04:02;;;;;;;42.40;20.27;;;3.90;99.90;;;;;;5004862;28;20535;-50
2021/01/11 06:06:28;;;;;;;77.83;26.83;;;3.90;99.90;;;;;;5001454;28;20181;-51
2021/01/11 06:08:54;;;;;;;55.93;24.33;;;3.90;99.90;;;;;;4998385;28;20191;-50
2021/01/11 06:11:27;;;;;;;48.63;22.80;;;3.90;99.90;;;;;;5019985;28;20177;-48
2021/01/11 06:13:57;;;;;;;70.13;26.40;;;3.90;99.90;;;;;;5013362;28;20650;-50
2021/01/11 06:16:24;;;;;;;43.73;21.07;;;3.90;99.90;;;;;;4999055;28;20284;-46
2021/01/11 06:18:51;;;;;;;43.13;21.20;;;3.90;99.90;;;;;;5003992;28;20172;-50
2021/01/11 06:21:18;;;;;;;51.13;24.00;;;3.90;99.90;;;;;;5003276;28;20586;-46
2021/01/11 06:23:43;;;;;;;48.80;22.60;;;3.80;99.90;;;;;;4995139;28;20628;-50
2021/01/11 06:26:27;;;;;;;39.10;18.83;;;3.90;99.90;;;;;;5024718;28;20172;-50
2021/01/11 06:28:54;;;;;;;47.33;20.97;;;3.90;99.90;;;;;;5024576;28;20187;-50
2021/01/11 06:31:26;;;;;;;43.30;20.63;;;3.80;99.90;;;;;;5020396;28;20176;-47
2021/01/11 06:33:51;;;;;;;37.00;16.40;;;3.80;99.90;;;;;;5003634;28;20188;-50
2021/01/11 06:36:20;;;;;;;42.13;19.40;;;3.80;99.90;;;;;;5002848;28;20210;-50
2021/01/11 06:38:49;;;;;;;28.77;15.93;;;3.80;99.90;;;;;;5002763;28;20959;-51
2021/01/11 06:41:17;;;;;;;36.47;18.13;;;3.80;99.90;;;;;;5001152;28;20262;-50
2021/01/11 06:43:49;;;;;;;27.73;15.63;;;3.80;99.90;;;;;;5008537;28;20160;-50
2021/01/11 06:46:44;;;;;;;37.90;19.43;;;3.80;99.90;;;;;;5014005;28;20213;-51
2021/01/11 06:49:22;;;;;;;29.13;16.47;;;3.80;99.90;;;;;;4994452;28;20189;-48
2021/01/11 06:52:02;;;;;;;19.97;10.83;;;3.80;99.90;;;;;;5006826;28;20204;-50
2021/01/11 06:54:36;;;;;;;35.67;15.90;;;3.70;99.90;;;;;;5017767;28;20188;-51
2021/01/11 06:57:09;;;;;;;38.50;17.90;;;3.70;99.90;;;;;;5004649;28;20212;-49
2021/01/11 06:59:37;;;;;;;27.60;15.47;;;3.70;99.90;;;;;;5023824;28;20525;-52
2021/01/11 07:02:23;;;;;;;18.80;11.73;;;3.70;99.90;;;;;;5010270;28;20275;-52
2021/01/11 07:04:49;;;;;;;22.90;11.57;;;3.60;99.90;;;;;;5002747;28;20643;-49
2021/01/11 07:07:24;;;;;;;26.17;13.50;;;3.60;99.90;;;;;;5006883;28;20187;-53
2021/01/11 07:09:55;;;;;;;29.20;14.40;;;3.50;99.90;;;;;;4996473;28;20180;-48
2021/01/11 07:12:21;;;;;;;25.20;13.57;;;3.60;99.90;;;;;;5020949;28;20212;-52
2021/01/11 07:15:04;;;;;;;31.50;14.57;;;3.60;99.90;;;;;;5022766;28;20203;-49
2021/01/11 07:17:48;;;;;;;31.17;14.37;;;3.60;99.90;;;;;;5017064;28;20298;-51
2021/01/11 07:20:16;;;;;;;15.83;9.00;;;3.50;99.90;;;;;;5014718;28;20997;-52
2021/01/11 07:22:44;;;;;;;24.13;12.20;;;3.50;99.90;;;;;;5005519;28;20610;-47
2021/01/11 07:25:18;;;;;;;32.10;13.20;;;3.50;99.90;;;;;;5021972;28;20187;-54
2021/01/11 07:27:44;;;;;;;21.07;10.10;;;3.50;99.90;;;;;;5002929;28;20183;-49
2021/01/11 07:30:10;;;;;;;24.90;10.93;;;3.40;99.90;;;;;;5021315;28;20211;-54
2021/01/11 07:32:36;;;;;;;30.73;13.40;;;3.40;99.90;;;;;;5018765;28;20208;-48
2021/01/11 07:35:02;;;;;;;16.97;9.97;;;3.40;99.90;;;;;;5008137;28;20176;-49
2021/01/11 07:37:28;;;;;;;35.37;13.20;;;3.40;99.90;;;;;;5009573;28;20219;-49
2021/01/11 07:39:54;;;;;;;26.57;13.67;;;3.40;99.90;;;;;;5014019;28;20176;-51
2021/01/11 07:42:21;;;;;;;29.37;11.53;;;3.40;99.90;;;;;;5002878;28;20216;-52
2021/01/11 07:44:47;;;;;;;32.40;11.77;;;3.40;99.90;;;;;;5024121;28;20199;-52
2021/01/11 07:47:14;;;;;;;24.07;11.53;;;3.30;99.90;;;;;;5015440;28;20227;-48
2021/01/11 07:49:49;;;;;;;30.37;14.00;;;3.30;99.90;;;;;;5018604;28;20180;-49
2021/01/11 07:52:21;;;;;;;25.50;13.17;;;3.40;99.90;;;;;;5010434;28;20802;-48
2021/01/11 07:55:03;;;;;;;25.37;13.27;;;3.30;99.90;;;;;;5016368;28;20196;-49
2021/01/11 07:57:30;;;;;;;20.40;11.63;;;3.30;99.90;;;;;;5002313;28;20809;-49
2021/01/11 08:00:08;;;;;;;40.27;15.17;;;3.30;99.90;;;;;;5018718;28;20188;-47
2021/01/11 08:02:33;;;;;;;26.90;13.23;;;3.30;99.90;;;;;;5003765;28;20245;-51
2021/01/11 08:04:59;;;;;;;28.03;13.57;;;3.30;99.90;;;;;;5022651;28;20168;-47
2021/01/11 08:07:32;;;;;;;27.63;13.10;;;3.30;99.90;;;;;;5006975;28;20180;-50
2021/01/11 08:10:00;;;;;;;22.53;12.53;;;3.20;99.90;;;;;;5016977;28;20203;-49
2021/01/11 08:12:29;;;;;;;37.43;14.50;;;3.20;99.90;;;;;;5004944;28;20882;-54
2021/01/11 08:15:03;;;;;;;26.30;13.27;;;3.20;99.90;;;;;;5010519;28;20231;-46
2021/01/11 08:17:31;;;;;;;30.73;13.63;;;3.20;99.90;;;;;;5008978;28;20219;-52
2021/01/11 08:19:58;;;;;;;21.87;12.20;;;3.20;99.90;;;;;;5004140;28;20183;-51
2021/01/11 08:22:27;;;;;;;18.53;12.03;;;3.30;99.90;;;;;;5012847;28;20207;-50
2021/01/11 08:24:54;;;;;;;36.43;13.00;;;3.20;99.90;;;;;;5007764;28;20202;-51
2021/01/11 08:27:43;;;;;;;28.97;14.40;;;3.20;99.90;;;;;;5024027;28;20188;-50
2021/01/11 08:30:11;;;;;;;29.83;14.27;;;3.20;99.90;;;;;;5019664;28;20184;-54
2021/01/11 08:32:39;;;;;;;37.23;16.37;;;3.20;99.90;;;;;;5005118;28;20205;-47
2021/01/11 08:35:15;;;;;;;19.73;10.40;;;3.20;99.90;;;;;;5019725;28;20188;-55
2021/01/11 08:37:42;;;;;;;46.17;16.13;;;3.20;99.90;;;;;;5010349;28;20203;-52
2021/01/11 08:40:25;;;;;;;44.70;16.70;;;3.20;99.90;;;;;;5005130;28;20551;-49
2021/01/11 08:42:51;;;;;;;29.33;13.63;;;3.20;99.90;;;;;;4999640;28;20207;-51
2021/01/11 08:45:25;;;;;;;32.27;13.03;;;3.30;99.90;;;;;;5016271;28;20191;-52
2021/01/11 08:48:07;;;;;;;32.73;14.90;;;3.20;99.90;;;;;;5023897;28;20179;-52
2021/01/11 08:50:35;;;;;;;34.83;15.60;;;3.20;99.90;;;;;;5014590;28;20192;-49
2021/01/11 08:53:19;;;;;;;22.83;12.07;;;3.20;99.90;;;;;;5007193;28;20287;-50
2021/01/11 08:56:11;;;;;;;40.40;14.73;;;3.30;99.90;;;;;;5004895;28;20196;-49
2021/01/11 08:58:45;;;;;;;53.47;16.73;;;3.20;99.90;;;;;;5003583;28;20192;-48
2021/01/11 09:01:19;;;;;;;37.70;16.60;;;3.20;99.90;;;;;;5020466;28;20183;-50
2021/01/11 09:03:53;;;;;;;33.03;14.00;;;3.20;99.90;;;;;;5021524;28;20172;-48
2021/01/11 09:06:41;;;;;;;26.90;13.43;;;3.30;99.90;;;;;;5018374;28;20195;-49
2021/01/11 09:09:07;;;;;;;42.93;16.37;;;3.30;99.90;;;;;;5019994;28;20191;-52
2021/01/11 09:11:34;;;;;;;46.60;15.87;;;3.30;99.90;;;;;;5019182;28;20214;-49
2021/01/11 09:14:10;;;;;;;37.63;17.50;;;3.30;99.90;;;;;;5008005;28;20200;-46
2021/01/11 09:16:37;;;;;;;38.17;17.40;;;3.30;99.90;;;;;;5020977;28;20200;-49
2021/01/11 09:19:12;;;;;;;61.77;23.03;;;3.30;99.90;;;;;;5019612;28;20179;-51
2021/01/11 09:21:39;;;;;;;42.70;18.17;;;3.30;99.90;;;;;;5018160;28;20276;-50
2021/01/11 09:24:05;;;;;;;48.57;18.47;;;3.30;99.90;;;;;;5014231;28;20199;-49
2021/01/11 09:26:35;;;;;;;32.03;15.70;;;3.30;99.90;;;;;;5008259;28;20199;-46
2021/01/11 09:29:00;;;;;;;57.20;19.67;;;3.40;99.90;;;;;;5016045;28;20505;-47
2021/01/11 09:31:26;;;;;;;45.53;17.77;;;3.40;99.90;;;;;;5013491;28;20601;-52
2021/01/11 09:33:53;;;;;;;43.13;16.57;;;3.40;99.90;;;;;;5018586;28;20199;-50
2021/01/11 09:36:20;;;;;;;43.67;17.83;;;3.40;99.90;;;;;;5026748;28;20284;-51
2021/01/11 09:38:46;;;;;;;42.40;17.13;;;3.40;99.90;;;;;;5013657;28;20188;-49
2021/01/11 09:41:12;;;;;;;43.83;17.27;;;3.40;99.90;;;;;;5010823;28;20191;-49
2021/01/11 09:43:37;;;;;;;32.73;17.80;;;3.40;99.90;;;;;;5008870;28;20173;-49
2021/01/11 09:46:03;;;;;;;28.87;15.00;;;3.40;99.90;;;;;;5006335;28;20200;-47
2021/01/11 09:48:28;;;;;;;41.40;19.60;;;3.40;99.90;;;;;;5018710;28;20283;-48
2021/01/11 09:50:54;;;;;;;35.30;17.87;;;3.40;99.90;;;;;;5014292;28;21035;-50
2021/01/11 09:53:20;;;;;;;35.87;18.23;;;3.40;99.90;;;;;;5016040;28;20212;-49
2021/01/11 09:55:45;;;;;;;40.40;19.30;;;3.40;99.90;;;;;;5008370;28;20239;-50
2021/01/11 09:58:15;;;;;;;39.77;18.50;;;3.40;99.90;;;;;;5013504;28;20216;-49
2021/01/11 10:00:41;;;;;;;32.80;16.97;;;3.40;99.90;;;;;;5013613;28;20224;-47
2021/01/11 10:03:07;;;;;;;35.73;20.13;;;3.40;99.90;;;;;;5004176;28;20220;-56
2021/01/11 10:05:33;;;;;;;35.33;18.67;;;3.40;99.90;;;;;;5022459;28;20211;-48
2021/01/11 10:07:59;;;;;;;52.97;19.60;;;3.40;99.90;;;;;;5016069;28;20195;-54
2021/01/11 10:10:25;;;;;;;32.37;14.03;;;3.40;99.90;;;;;;5007097;28;20203;-51
2021/01/11 10:12:50;;;;;;;43.80;18.10;;;3.40;99.90;;;;;;5015888;28;20253;-54
2021/01/11 10:15:16;;;;;;;39.77;17.53;;;3.40;99.90;;;;;;5020808;28;20199;-54
2021/01/11 10:17:41;;;;;;;36.20;17.37;;;3.40;99.90;;;;;;5007812;28;20216;-47
2021/01/11 10:20:08;;;;;;;43.30;20.37;;;3.40;99.90;;;;;;5023409;28;20646;-50
2021/01/11 10:22:34;;;;;;;50.50;20.53;;;3.40;99.90;;;;;;5010265;28;20196;-45
2021/01/11 10:25:00;;;;;;;42.23;19.87;;;3.40;99.90;;;;;;5005065;28;20890;-46
2021/01/11 10:27:27;;;;;;;46.20;20.43;;;3.40;99.90;;;;;;5005829;28;20276;-47
2021/01/11 10:29:52;;;;;;;45.57;20.53;;;3.40;99.90;;;;;;5012017;28;20207;-53
2021/01/11 10:32:18;;;;;;;73.43;25.70;;;3.40;99.90;;;;;;5007713;28;20247;-54
2021/01/11 10:34:43;;;;;;;31.93;16.00;;;3.40;99.90;;;;;;5011783;28;20235;-47
2021/01/11 10:37:09;;;;;;;46.23;17.47;;;3.40;99.90;;;;;;5021857;28;20215;-51
2021/01/11 10:39:34;;;;;;;32.10;15.73;;;3.40;99.90;;;;;;5021388;28;20267;-48
2021/01/11 10:42:00;;;;;;;46.43;19.30;;;3.30;99.90;;;;;;5005160;28;20209;-52
2021/01/11 10:44:26;;;;;;;37.70;15.40;;;3.30;99.90;;;;;;5016809;28;20188;-55
2021/01/11 10:46:53;;;;;;;48.93;20.60;;;3.30;99.90;;;;;;5017108;28;20190;-58
2021/01/11 10:49:20;;;;;;;40.30;17.83;;;3.30;99.90;;;;;;5010431;28;20205;-51
2021/01/11 10:51:46;;;;;;;40.80;18.40;;;3.30;99.90;;;;;;5011183;28;20771;-51
2021/01/11 10:54:12;;;;;;;65.27;22.13;;;3.30;99.90;;;;;;5026772;28;20188;-56
2021/01/11 10:56:38;;;;;;;40.37;18.23;;;3.30;99.90;;;;;;5016427;28;20656;-53
2021/01/11 10:59:03;;;;;;;44.77;20.37;;;3.30;99.90;;;;;;5012249;28;20196;-53
2021/01/11 11:01:29;;;;;;;65.63;22.83;;;3.30;99.90;;;;;;5016735;28;20185;-51
2021/01/11 11:03:55;;;;;;;57.27;21.30;;;3.30;99.90;;;;;;4995155;28;20344;-49
2021/01/11 11:06:22;;;;;;;58.50;20.23;;;3.30;99.90;;;;;;5012472;28;20539;-51
2021/01/11 11:08:47;;;;;;;46.40;19.43;;;3.30;99.90;;;;;;5020966;28;20202;-53
2021/01/11 11:11:13;;;;;;;38.33;19.17;;;3.30;99.90;;;;;;5018036;28;20695;-49
2021/01/11 11:13:39;;;;;;;29.50;14.90;;;3.30;99.90;;;;;;4999891;28;20520;-46
2021/01/11 11:16:10;;;;;;;35.90;15.53;;;3.30;99.90;;;;;;5021559;28;20184;-49
2021/01/11 11:18:36;;;;;;;38.13;16.57;;;3.20;99.90;;;;;;5012767;28;20215;-47
2021/01/11 11:21:05;;;;;;;32.90;15.23;;;3.30;99.90;;;;;;5013634;28;20172;-49
2021/01/11 11:23:31;;;;;;;44.97;17.47;;;3.30;99.90;;;;;;5019101;28;20249;-50
2021/01/11 11:25:57;;;;;;;39.10;15.77;;;3.20;99.90;;;;;;5018447;28;20176;-50
2021/01/11 11:28:22;;;;;;;33.73;15.30;;;3.30;99.90;;;;;;5013810;28;20240;-49
2021/01/11 11:30:48;;;;;;;39.13;15.57;;;3.30;99.90;;;;;;5014934;28;20293;-50
2021/01/11 11:33:13;;;;;;;33.60;15.07;;;3.30;99.90;;;;;;5001225;28;20207;-50
2021/01/11 11:35:41;;;;;;;32.00;14.70;;;3.30;99.90;;;;;;5012131;28;20254;-49
2021/01/11 11:38:08;;;;;;;40.00;15.83;;;3.30;99.90;;;;;;5013877;28;20208;-49
2021/01/11 11:40:34;;;;;;;34.03;14.87;;;3.30;99.90;;;;;;5014857;28;20168;-54
2021/01/11 11:42:59;;;;;;;27.40;11.13;;;3.30;99.90;;;;;;5005737;28;20258;-48
2021/01/11 11:45:25;;;;;;;32.23;14.70;;;3.30;99.90;;;;;;5007843;28;20187;-50
2021/01/11 11:47:50;;;;;;;40.90;14.30;;;3.30;99.90;;;;;;5017299;28;20200;-47
2021/01/11 11:50:17;;;;;;;47.23;15.90;;;3.30;99.90;;;;;;5007290;28;20207;-54
2021/01/11 11:52:43;;;;;;;47.27;18.47;;;3.30;99.90;;;;;;5024403;28;20200;-50
2021/01/11 11:55:12;;;;;;;41.37;15.30;;;3.30;99.90;;;;;;5016395;28;20184;-46
2021/01/11 11:57:44;;;;;;;44.27;15.27;;;3.30;99.90;;;;;;5017847;28;20770;-51
2021/01/11 12:00:15;;;;;;;27.33;12.40;;;3.30;99.90;;;;;;5003971;28;20199;-48
2021/01/11 12:02:45;;;;;;;43.33;15.93;;;3.30;99.90;;;;;;5019435;28;20774;-50
2021/01/11 12:05:12;;;;;;;35.03;15.70;;;3.30;99.90;;;;;;5013901;28;20188;-52
2021/01/11 12:07:37;;;;;;;43.83;16.33;;;3.30;99.90;;;;;;5007019;28;20204;-52
2021/01/11 12:10:05;;;;;;;35.17;14.60;;;3.30;99.90;;;;;;5012260;28;20550;-48
2021/01/11 12:12:30;;;;;;;43.87;16.23;;;3.30;99.90;;;;;;5015714;28;20563;-47
2021/01/11 12:14:58;;;;;;;29.50;12.87;;;3.30;99.90;;;;;;5014493;28;20185;-50
2021/01/11 12:17:24;;;;;;;34.97;14.40;;;3.30;99.90;;;;;;5015447;28;20215;-48
2021/01/11 12:19:50;;;;;;;23.70;11.80;;;3.30;99.90;;;;;;5019517;28;20183;-51
2021/01/11 12:22:15;;;;;;;30.83;13.60;;;3.30;99.90;;;;;;5001002;28;20204;-50
2021/01/11 12:24:41;;;;;;;24.17;11.83;;;3.20;99.90;;;;;;5008184;28;20257;-50
2021/01/11 12:27:07;;;;;;;50.00;16.47;;;3.20;99.90;;;;;;5024398;28;20177;-50
2021/01/11 12:29:32;;;;;;;45.10;15.30;;;3.20;99.90;;;;;;5020534;28;20176;-49
2021/01/11 12:32:05;;;;;;;20.27;11.00;;;3.20;99.90;;;;;;5006511;28;20200;-48
2021/01/11 12:34:42;;;;;;;27.50;14.30;;;3.20;99.90;;;;;;5017291;28;20207;-47
2021/01/11 12:37:09;;;;;;;29.73;13.50;;;3.20;99.90;;;;;;5027813;28;20208;-50
2021/01/11 12:39:34;;;;;;;35.57;16.37;;;3.20;99.90;;;;;;5010934;28;20996;-49
2021/01/11 12:42:00;;;;;;;36.50;14.30;;;3.20;99.90;;;;;;5012204;28;20290;-49